Cornion — CQMH — position and weather

sailwx.info

Track history (hours):
 
Tides and Currents Weather Stations Pressure Air Temp Water Temp Dewpoint Dewpoint Depression Visibility Wind Speed Wind Dir Waves Ship Positions

Cornion

Last reported at 2017-Jan-17 14:33 UTC. Time now 2017-Jan-17 19:13 UTC.
Position N 39°37' W 000°09'.

Length 90 m; draft 4.4 m.

Type: Cargo ship. MMSI: 255803370.

Date/timePositionNaut miles runAvg speedWind from/ knotsBaromVisibWave heightAir tempDewpointWater temp
2017-Jan-17 14:33N 39°37' W 000°09'0 0.0
2017-Jan-17 13:26N 39°37' W 000°09'0 0.0
2017-Jan-17 12:19N 39°37' W 000°09'0 0.0
2017-Jan-17 11:32N 39°37' W 000°09'76 8.0
2017-Jan-17 02:07N 40°24' E 001°08'610.7
2017-Jan-17 01:32N 40°28' E 001°15'1211.0
2017-Jan-17 00:29N 40°35' E 001°27'202 7.0
2017-Jan-15 19:27N 43°21' E 004°03'910.1
2017-Jan-15 18:33N 43°21' E 004°15'1110.6
2017-Jan-15 17:33N 43°18' E 004°29'1110.9
2017-Jan-15 16:33N 43°15' E 004°44'1110.6
2017-Jan-15 15:34N 43°12' E 004°58'1010.1
2017-Jan-15 14:34N 43°09' E 005°11'89 5.4
2017-Jan-14 22:05N 43°14' E 007°13'1 1.5
2017-Jan-14 21:26N 43°15' E 007°12'1 0.5
2017-Jan-14 19:32N 43°16' E 007°13'1 1.3
2017-Jan-14 18:29N 43°15' E 007°15'3 1.2
2017-Jan-14 16:17N 43°14' E 007°18'1 1.2
2017-Jan-14 15:14N 43°13' E 007°19'1 0.9
2017-Jan-14 14:17N 43°12' E 007°20'1 0.8
2017-Jan-14 13:32N 43°12' E 007°20'1 0.5
2017-Jan-14 11:18N 43°11' E 007°20'0 0.4
2017-Jan-14 10:17N 43°10' E 007°19'1 0.6
2017-Jan-14 09:23N 43°10' E 007°19'9 0.4
2017-Jan-13 11:26N 43°13' E 007°07'2 1.7
2017-Jan-13 10:26N 43°14' E 007°05'2 1.6
2017-Jan-13 09:23N 43°14' E 007°03'1 0.7
2017-Jan-13 08:32N 43°14' E 007°04'7 7.2
2017-Jan-13 07:32N 43°14' E 007°13'1 0.8
2017-Jan-13 06:29N 43°14' E 007°15'3 1.4
2017-Jan-13 04:14N 43°14' E 007°10'4 5.5
2017-Jan-13 03:33N 43°18' E 007°11'3 2.6
2017-Jan-13 02:13N 43°21' E 007°11'1 0.9
2017-Jan-13 01:28N 43°21' E 007°10'1 0.8
2017-Jan-13 00:19N 43°21' E 007°09'1 0.7
2017-Jan-12 23:31N 43°20' E 007°08'1 0.7
2017-Jan-12 22:28N 43°20' E 007°08'2 0.7
2017-Jan-12 19:25N 43°19' E 007°05'1 0.9
2017-Jan-12 18:19N 43°19' E 007°03'0 0.6
2017-Jan-12 17:31N 43°19' E 007°03'1 0.5
2017-Jan-12 16:16N 43°18' E 007°02'1 0.6
2017-Jan-12 15:19N 43°18' E 007°02'1 0.6
2017-Jan-12 14:25N 43°17' E 007°03'2 0.8
2017-Jan-12 12:28N 43°16' E 007°04'1 0.7
2017-Jan-12 11:19N 43°16' E 007°05'1 0.5
2017-Jan-12 09:28N 43°15' E 007°07'0 0.4
2017-Jan-12 08:28N 43°15' E 007°07'0 0.3
2017-Jan-12 07:31N 43°15' E 007°07'0 0.2
2017-Jan-12 06:31N 43°15' E 007°08'1 0.4
2017-Jan-12 04:13N 43°16' E 007°07'1 0.3
2017-Jan-12 02:07N 43°16' E 007°06'0 0.1
2017-Jan-12 01:22N 43°16' E 007°06'0 0.2
2017-Jan-12 00:31N 43°16' E 007°06'0 0.1
2017-Jan-11 23:31N 43°16' E 007°06'1 0.7
2017-Jan-11 22:31N 43°16' E 007°05'1 0.9
2017-Jan-11 21:25N 43°16' E 007°04'1 0.8
2017-Jan-11 20:25N 43°16' E 007°03'0 0.5
2017-Jan-11 19:25N 43°16' E 007°02'0 0.4
2017-Jan-11 18:28N 43°15' E 007°02'1 0.4
2017-Jan-11 17:13N 43°15' E 007°03'1 0.6
2017-Jan-11 15:16N 43°15' E 007°04'1 0.8
2017-Jan-11 14:31N 43°15' E 007°05'4 0.5
2017-Jan-11 06:22N 43°17' E 006°60'1 1.4
2017-Jan-11 05:19N 43°17' E 007°02'1 1.5
2017-Jan-11 04:28N 43°17' E 007°04'1 1.6
2017-Jan-11 03:31N 43°17' E 007°06'2 1.7
2017-Jan-11 02:22N 43°17' E 007°08'2 1.9
2017-Jan-11 01:30N 43°17' E 007°11'2 2.0
2017-Jan-11 00:33N 43°17' E 007°13'2 2.2
2017-Jan-10 23:33N 43°17' E 007°16'2 2.3
2017-Jan-10 22:33N 43°17' E 007°20'5 5.0
2017-Jan-10 21:33N 43°17' E 007°13'8 7.6
2017-Jan-10 20:33N 43°18' E 007°02'2 1.8
2017-Jan-10 19:32N 43°19' E 007°05'2 2.0
2017-Jan-10 18:32N 43°19' E 007°07'2 2.0
2017-Jan-10 17:28N 43°20' E 007°10'2 2.2
2017-Jan-10 16:32N 43°20' E 007°13'2 2.4
2017-Jan-10 15:31N 43°21' E 007°16'2 2.4
2017-Jan-10 14:33N 43°21' E 007°19'14 2.2
2017-Jan-10 08:26N 43°33' E 007°28'4 1.7
2017-Jan-10 06:11N 43°33' E 007°33'1 1.3
2017-Jan-10 05:23N 43°32' E 007°34'1 1.2
2017-Jan-10 04:32N 43°32' E 007°36'1 1.0
2017-Jan-10 03:29N 43°33' E 007°37'1 0.5
2017-Jan-10 01:29N 43°33' E 007°38'0 0.2
2017-Jan-10 00:23N 43°32' E 007°39'0 0.2
2017-Jan-09 23:29N 43°32' E 007°39'0 0.5
2017-Jan-09 22:29N 43°32' E 007°39'1 0.6
2017-Jan-09 21:32N 43°31' E 007°39'1 0.7
2017-Jan-09 20:32N 43°31' E 007°40'8 8.0
2017-Jan-09 19:30N 43°38' E 007°46'4210.6
2017-Jan-09 15:33N 44°08' E 008°26'10 9.5
2017-Jan-09 14:33N 44°17' E 008°31'2 2.2
2017-Jan-09 13:33N 44°19' E 008°30'0 0.0
2017-Jan-09 12:30N 44°19' E 008°30'0 0.0
2017-Jan-09 11:30N 44°19' E 008°30'0 0.0
2017-Jan-09 10:33N 44°19' E 008°30'0 0.0
2017-Jan-09 09:30N 44°19' E 008°30'0 0.0
2017-Jan-09 08:30N 44°19' E 008°30'0 0.0
2017-Jan-09 07:30N 44°19' E 008°30'0 0.0
2017-Jan-09 06:30N 44°19' E 008°30'0 0.0
2017-Jan-09 05:30N 44°19' E 008°30'0 0.0
2017-Jan-09 04:30N 44°19' E 008°30'0 0.0
2017-Jan-09 03:30N 44°19' E 008°30'0 0.0
2017-Jan-09 02:30N 44°19' E 008°30'0 0.0
2017-Jan-09 01:30N 44°19' E 008°30'0 0.0
2017-Jan-09 00:30N 44°19' E 008°30'0 0.0
2017-Jan-08 23:24N 44°19' E 008°30'0 0.0
2017-Jan-08 22:30N 44°19' E 008°30'0 0.0
2017-Jan-08 21:30N 44°19' E 008°30'0 0.0
2017-Jan-08 20:30N 44°19' E 008°30'0 0.0
2017-Jan-08 19:30N 44°19' E 008°30'0 0.0
2017-Jan-08 18:30N 44°19' E 008°30'0 0.0
2017-Jan-08 17:30N 44°19' E 008°30'0 0.0
2017-Jan-08 16:24N 44°19' E 008°30'0 0.0
2017-Jan-08 15:30N 44°19' E 008°30'0 0.0
2017-Jan-08 14:30N 44°19' E 008°30'0 0.0
2017-Jan-08 13:30N 44°19' E 008°30'0 0.0
2017-Jan-08 12:30N 44°19' E 008°30'0 0.0
2017-Jan-08 11:30N 44°19' E 008°30'0 0.0
2017-Jan-08 10:18N 44°19' E 008°30'0 0.0
2017-Jan-08 09:30N 44°19' E 008°30'0 0.0
2017-Jan-08 08:30N 44°19' E 008°30'0 0.0
2017-Jan-08 07:30N 44°19' E 008°30'0 0.0
2017-Jan-08 06:30N 44°19' E 008°30'0 0.0
2017-Jan-08 05:30N 44°19' E 008°30'0 0.0
2017-Jan-08 04:30N 44°19' E 008°30'0 0.0
2017-Jan-08 03:24N 44°19' E 008°30'0 0.0
2017-Jan-08 02:30N 44°19' E 008°30'0 0.0
2017-Jan-08 01:30N 44°19' E 008°30'0 0.0
2017-Jan-08 00:30N 44°19' E 008°30'0 0.0
2017-Jan-07 23:30N 44°19' E 008°30'0 0.0
2017-Jan-07 22:30N 44°19' E 008°30'0 0.0
2017-Jan-07 21:30N 44°19' E 008°30'0 0.0
2017-Jan-07 20:30N 44°19' E 008°30'0 0.0
2017-Jan-07 19:30N 44°19' E 008°30'0 0.0
2017-Jan-07 18:30N 44°19' E 008°30'0 0.0
2017-Jan-07 17:18N 44°19' E 008°30'0 0.0
2017-Jan-07 16:33N 44°19' E 008°30'0 0.0
2017-Jan-07 15:30N 44°19' E 008°30'  
Track history (hours):
 
Tides and Currents Weather Stations Pressure Air Temp Water Temp Dewpoint Dewpoint Depression Visibility Wind Speed Wind Dir Waves Ship Positions

Cornion

Last reported at 2017-Jan-17 14:33 UTC. Time now 2017-Jan-17 19:13 UTC.
Position N 39°37' W 000°09'.

Length 90 m; draft 4.4 m.

Type: Cargo ship. MMSI: 255803370.

Date/timePositionNaut miles runAvg speedWind from/ knotsBaromVisibWave heightAir tempDewpointWater temp
2017-Jan-17 14:33N 39°37' W 000°09'0 0.0
2017-Jan-17 13:26N 39°37' W 000°09'0 0.0
2017-Jan-17 12:19N 39°37' W 000°09'0 0.0
2017-Jan-17 11:32N 39°37' W 000°09'76 8.0
2017-Jan-17 02:07N 40°24' E 001°08'610.7
2017-Jan-17 01:32N 40°28' E 001°15'1211.0
2017-Jan-17 00:29N 40°35' E 001°27'202 7.0
2017-Jan-15 19:27N 43°21' E 004°03'910.1
2017-Jan-15 18:33N 43°21' E 004°15'1110.6
2017-Jan-15 17:33N 43°18' E 004°29'1110.9
2017-Jan-15 16:33N 43°15' E 004°44'1110.6
2017-Jan-15 15:34N 43°12' E 004°58'1010.1
2017-Jan-15 14:34N 43°09' E 005°11'89 5.4
2017-Jan-14 22:05N 43°14' E 007°13'1 1.5
2017-Jan-14 21:26N 43°15' E 007°12'1 0.5
2017-Jan-14 19:32N 43°16' E 007°13'1 1.3
2017-Jan-14 18:29N 43°15' E 007°15'3 1.2
2017-Jan-14 16:17N 43°14' E 007°18'1 1.2
2017-Jan-14 15:14N 43°13' E 007°19'1 0.9
2017-Jan-14 14:17N 43°12' E 007°20'1 0.8
2017-Jan-14 13:32N 43°12' E 007°20'1 0.5
2017-Jan-14 11:18N 43°11' E 007°20'0 0.4
2017-Jan-14 10:17N 43°10' E 007°19'1 0.6
2017-Jan-14 09:23N 43°10' E 007°19'9 0.4
2017-Jan-13 11:26N 43°13' E 007°07'2 1.7
2017-Jan-13 10:26N 43°14' E 007°05'2 1.6
2017-Jan-13 09:23N 43°14' E 007°03'1 0.7
2017-Jan-13 08:32N 43°14' E 007°04'7 7.2
2017-Jan-13 07:32N 43°14' E 007°13'1 0.8
2017-Jan-13 06:29N 43°14' E 007°15'3 1.4
2017-Jan-13 04:14N 43°14' E 007°10'4 5.5
2017-Jan-13 03:33N 43°18' E 007°11'3 2.6
2017-Jan-13 02:13N 43°21' E 007°11'1 0.9
2017-Jan-13 01:28N 43°21' E 007°10'1 0.8
2017-Jan-13 00:19N 43°21' E 007°09'1 0.7
2017-Jan-12 23:31N 43°20' E 007°08'1 0.7
2017-Jan-12 22:28N 43°20' E 007°08'2 0.7
2017-Jan-12 19:25N 43°19' E 007°05'1 0.9
2017-Jan-12 18:19N 43°19' E 007°03'0 0.6
2017-Jan-12 17:31N 43°19' E 007°03'1 0.5
2017-Jan-12 16:16N 43°18' E 007°02'1 0.6
2017-Jan-12 15:19N 43°18' E 007°02'1 0.6
2017-Jan-12 14:25N 43°17' E 007°03'2 0.8
2017-Jan-12 12:28N 43°16' E 007°04'1 0.7
2017-Jan-12 11:19N 43°16' E 007°05'1 0.5
2017-Jan-12 09:28N 43°15' E 007°07'0 0.4
2017-Jan-12 08:28N 43°15' E 007°07'0 0.3
2017-Jan-12 07:31N 43°15' E 007°07'0 0.2
2017-Jan-12 06:31N 43°15' E 007°08'1 0.4
2017-Jan-12 04:13N 43°16' E 007°07'1 0.3
2017-Jan-12 02:07N 43°16' E 007°06'0 0.1
2017-Jan-12 01:22N 43°16' E 007°06'0 0.2
2017-Jan-12 00:31N 43°16' E 007°06'0 0.1
2017-Jan-11 23:31N 43°16' E 007°06'1 0.7
2017-Jan-11 22:31N 43°16' E 007°05'1 0.9
2017-Jan-11 21:25N 43°16' E 007°04'1 0.8
2017-Jan-11 20:25N 43°16' E 007°03'0 0.5
2017-Jan-11 19:25N 43°16' E 007°02'0 0.4
2017-Jan-11 18:28N 43°15' E 007°02'1 0.4
2017-Jan-11 17:13N 43°15' E 007°03'1 0.6
2017-Jan-11 15:16N 43°15' E 007°04'1 0.8
2017-Jan-11 14:31N 43°15' E 007°05'4 0.5
2017-Jan-11 06:22N 43°17' E 006°60'1 1.4
2017-Jan-11 05:19N 43°17' E 007°02'1 1.5
2017-Jan-11 04:28N 43°17' E 007°04'1 1.6
2017-Jan-11 03:31N 43°17' E 007°06'2 1.7
2017-Jan-11 02:22N 43°17' E 007°08'2 1.9
2017-Jan-11 01:30N 43°17' E 007°11'2 2.0
2017-Jan-11 00:33N 43°17' E 007°13'2 2.2
2017-Jan-10 23:33N 43°17' E 007°16'2 2.3
2017-Jan-10 22:33N 43°17' E 007°20'5 5.0
2017-Jan-10 21:33N 43°17' E 007°13'8 7.6
2017-Jan-10 20:33N 43°18' E 007°02'2 1.8
2017-Jan-10 19:32N 43°19' E 007°05'2 2.0
2017-Jan-10 18:32N 43°19' E 007°07'2 2.0
2017-Jan-10 17:28N 43°20' E 007°10'2 2.2
2017-Jan-10 16:32N 43°20' E 007°13'2 2.4
2017-Jan-10 15:31N 43°21' E 007°16'2 2.4
2017-Jan-10 14:33N 43°21' E 007°19'14 2.2
2017-Jan-10 08:26N 43°33' E 007°28'4 1.7
2017-Jan-10 06:11N 43°33' E 007°33'1 1.3
2017-Jan-10 05:23N 43°32' E 007°34'1 1.2
2017-Jan-10 04:32N 43°32' E 007°36'1 1.0
2017-Jan-10 03:29N 43°33' E 007°37'1 0.5
2017-Jan-10 01:29N 43°33' E 007°38'0 0.2
2017-Jan-10 00:23N 43°32' E 007°39'0 0.2
2017-Jan-09 23:29N 43°32' E 007°39'0 0.5
2017-Jan-09 22:29N 43°32' E 007°39'1 0.6
2017-Jan-09 21:32N 43°31' E 007°39'1 0.7
2017-Jan-09 20:32N 43°31' E 007°40'8 8.0
2017-Jan-09 19:30N 43°38' E 007°46'4210.6
2017-Jan-09 15:33N 44°08' E 008°26'10 9.5
2017-Jan-09 14:33N 44°17' E 008°31'2 2.2
2017-Jan-09 13:33N 44°19' E 008°30'0 0.0
2017-Jan-09 12:30N 44°19' E 008°30'0 0.0
2017-Jan-09 11:30N 44°19' E 008°30'0 0.0
2017-Jan-09 10:33N 44°19' E 008°30'0 0.0
2017-Jan-09 09:30N 44°19' E 008°30'0 0.0
2017-Jan-09 08:30N 44°19' E 008°30'0 0.0
2017-Jan-09 07:30N 44°19' E 008°30'0 0.0
2017-Jan-09 06:30N 44°19' E 008°30'0 0.0
2017-Jan-09 05:30N 44°19' E 008°30'0 0.0
2017-Jan-09 04:30N 44°19' E 008°30'0 0.0
2017-Jan-09 03:30N 44°19' E 008°30'0 0.0
2017-Jan-09 02:30N 44°19' E 008°30'0 0.0
2017-Jan-09 01:30N 44°19' E 008°30'0 0.0
2017-Jan-09 00:30N 44°19' E 008°30'0 0.0
2017-Jan-08 23:24N 44°19' E 008°30'0 0.0
2017-Jan-08 22:30N 44°19' E 008°30'0 0.0
2017-Jan-08 21:30N 44°19' E 008°30'0 0.0
2017-Jan-08 20:30N 44°19' E 008°30'0 0.0
2017-Jan-08 19:30N 44°19' E 008°30'0 0.0
2017-Jan-08 18:30N 44°19' E 008°30'0 0.0
2017-Jan-08 17:30N 44°19' E 008°30'0 0.0
2017-Jan-08 16:24N 44°19' E 008°30'0 0.0
2017-Jan-08 15:30N 44°19' E 008°30'0 0.0
2017-Jan-08 14:30N 44°19' E 008°30'0 0.0
2017-Jan-08 13:30N 44°19' E 008°30'0 0.0
2017-Jan-08 12:30N 44°19' E 008°30'0 0.0
2017-Jan-08 11:30N 44°19' E 008°30'0 0.0
2017-Jan-08 10:18N 44°19' E 008°30'0 0.0
2017-Jan-08 09:30N 44°19' E 008°30'0 0.0
2017-Jan-08 08:30N 44°19' E 008°30'0 0.0
2017-Jan-08 07:30N 44°19' E 008°30'0 0.0
2017-Jan-08 06:30N 44°19' E 008°30'0 0.0
2017-Jan-08 05:30N 44°19' E 008°30'0 0.0
2017-Jan-08 04:30N 44°19' E 008°30'0 0.0
2017-Jan-08 03:24N 44°19' E 008°30'0 0.0
2017-Jan-08 02:30N 44°19' E 008°30'0 0.0
2017-Jan-08 01:30N 44°19' E 008°30'0 0.0
2017-Jan-08 00:30N 44°19' E 008°30'0 0.0
2017-Jan-07 23:30N 44°19' E 008°30'0 0.0
2017-Jan-07 22:30N 44°19' E 008°30'0 0.0
2017-Jan-07 21:30N 44°19' E 008°30'0 0.0
2017-Jan-07 20:30N 44°19' E 008°30'0 0.0
2017-Jan-07 19:30N 44°19' E 008°30'0 0.0
2017-Jan-07 18:30N 44°19' E 008°30'0 0.0
2017-Jan-07 17:18N 44°19' E 008°30'0 0.0
2017-Jan-07 16:33N 44°19' E 008°30'0 0.0
2017-Jan-07 15:30N 44°19' E 008°30'  

Dump ship's entire track history